sensor_id;sensor_type;location;lat;lon;timestamp;pressure;altitude;pressure_sealevel;temperature;humidity
35224;BME280;21367;51.930;8.112;2023-03-25T00:04:39;99627.28;;;9.49;86.91
35224;BME280;21367;51.930;8.112;2023-03-25T00:09:42;99618.06;;;9.56;86.52
35224;BME280;21367;51.930;8.112;2023-03-25T00:14:46;99623.91;;;9.50;87.47
35224;BME280;21367;51.930;8.112;2023-03-25T00:19:56;99631.03;;;9.60;87.68
35224;BME280;21367;51.930;8.112;2023-03-25T00:25:02;99626.41;;;9.47;89.04
35224;BME280;21367;51.930;8.112;2023-03-25T00:30:08;99626.50;;;9.21;90.98
35224;BME280;21367;51.930;8.112;2023-03-25T00:35:14;99632.22;;;9.13;91.97
35224;BME280;21367;51.930;8.112;2023-03-25T00:40:19;99631.47;;;9.17;91.10
35224;BME280;21367;51.930;8.112;2023-03-25T00:45:22;99644.78;;;9.34;90.88
35224;BME280;21367;51.930;8.112;2023-03-25T00:50:29;99636.88;;;9.26;89.75
35224;BME280;21367;51.930;8.112;2023-03-25T00:55:32;99630.88;;;9.25;90.77
35224;BME280;21367;51.930;8.112;2023-03-25T01:00:36;99635.94;;;9.24;90.59
35224;BME280;21367;51.930;8.112;2023-03-25T01:05:43;99644.28;;;9.17;90.79
35224;BME280;21367;51.930;8.112;2023-03-25T01:10:47;99632.22;;;9.13;91.57
35224;BME280;21367;51.930;8.112;2023-03-25T01:15:50;99625.88;;;9.30;89.82
35224;BME280;21367;51.930;8.112;2023-03-25T01:20:57;99633.81;;;9.09;91.15
35224;BME280;21367;51.930;8.112;2023-03-25T01:26:00;99620.56;;;9.24;90.14
35224;BME280;21367;51.930;8.112;2023-03-25T01:31:06;99622.53;;;9.04;91.69
35224;BME280;21367;51.930;8.112;2023-03-25T01:36:13;99626.53;;;8.94;93.29
35224;BME280;21367;51.930;8.112;2023-03-25T01:41:17;99622.75;;;9.12;90.71
35224;BME280;21367;51.930;8.112;2023-03-25T01:46:21;99625.84;;;9.00;90.02
35224;BME280;21367;51.930;8.112;2023-03-25T01:51:29;99620.19;;;9.10;89.43
35224;BME280;21367;51.930;8.112;2023-03-25T01:56:37;99606.25;;;9.02;88.77
35224;BME280;21367;51.930;8.112;2023-03-25T02:01:45;99608.59;;;8.94;88.46
35224;BME280;21367;51.930;8.112;2023-03-25T02:06:52;99608.72;;;8.99;87.57
35224;BME280;21367;51.930;8.112;2023-03-25T02:11:57;99608.09;;;9.06;88.16
35224;BME280;21367;51.930;8.112;2023-03-25T02:17:07;99596.09;;;9.05;87.45
35224;BME280;21367;51.930;8.112;2023-03-25T02:22:40;99604.28;;;8.93;87.94
35224;BME280;21367;51.930;8.112;2023-03-25T02:27:58;99611.16;;;8.94;89.26
35224;BME280;21367;51.930;8.112;2023-03-25T02:39:13;99597.84;;;8.77;90.17
35224;BME280;21367;51.930;8.112;2023-03-25T02:44:26;99604.44;;;8.71;90.86
35224;BME280;21367;51.930;8.112;2023-03-25T02:49:34;99605.44;;;8.76;91.98
35224;BME280;21367;51.930;8.112;2023-03-25T02:54:41;99600.97;;;8.69;93.52
35224;BME280;21367;51.930;8.112;2023-03-25T02:59:48;99600.56;;;8.56;94.46
35224;BME280;21367;51.930;8.112;2023-03-25T03:04:55;99601.81;;;8.42;96.05
35224;BME280;21367;51.930;8.112;2023-03-25T03:10:08;99585.47;;;8.39;97.58
35224;BME280;21367;51.930;8.112;2023-03-25T03:15:31;99586.94;;;8.32;100.00
35224;BME280;21367;51.930;8.112;2023-03-25T03:20:43;99595.34;;;8.28;98.26
35224;BME280;21367;51.930;8.112;2023-03-25T03:25:55;99578.78;;;7.93;100.00
35224;BME280;21367;51.930;8.112;2023-03-25T03:31:06;99572.59;;;7.86;100.00
35224;BME280;21367;51.930;8.112;2023-03-25T03:36:17;99572.34;;;8.04;100.00
35224;BME280;21367;51.930;8.112;2023-03-25T03:41:26;99592.63;;;7.98;100.00
35224;BME280;21367;51.930;8.112;2023-03-25T03:46:34;99580.22;;;8.08;100.00
35224;BME280;21367;51.930;8.112;2023-03-25T03:51:45;99574.69;;;8.23;99.67
35224;BME280;21367;51.930;8.112;2023-03-25T03:56:55;99577.03;;;8.16;97.39
35224;BME280;21367;51.930;8.112;2023-03-25T04:02:05;99582.44;;;7.99;97.19
35224;BME280;21367;51.930;8.112;2023-03-25T04:07:13;99582.66;;;8.05;95.33
35224;BME280;21367;51.930;8.112;2023-03-25T04:12:24;99589.66;;;8.11;95.14
35224;BME280;21367;51.930;8.112;2023-03-25T04:17:28;99594.97;;;8.17;94.02
35224;BME280;21367;51.930;8.112;2023-03-25T04:22:32;99594.28;;;8.21;93.31
35224;BME280;21367;51.930;8.112;2023-03-25T04:27:40;99589.81;;;8.16;93.18
35224;BME280;21367;51.930;8.112;2023-03-25T04:32:48;99590.13;;;8.25;91.45
35224;BME280;21367;51.930;8.112;2023-03-25T04:37:52;99586.22;;;8.36;90.69
35224;BME280;21367;51.930;8.112;2023-03-25T04:42:59;99585.31;;;8.34;90.80
35224;BME280;21367;51.930;8.112;2023-03-25T04:48:03;99577.63;;;8.34;90.31
35224;BME280;21367;51.930;8.112;2023-03-25T04:53:14;99572.34;;;8.29;90.31
35224;BME280;21367;51.930;8.112;2023-03-25T04:58:20;99573.09;;;8.27;90.34
35224;BME280;21367;51.930;8.112;2023-03-25T05:03:24;99576.94;;;8.38;89.59
35224;BME280;21367;51.930;8.112;2023-03-25T05:08:29;99590.69;;;8.16;89.88
35224;BME280;21367;51.930;8.112;2023-03-25T05:13:36;99588.47;;;8.27;90.26
35224;BME280;21367;51.930;8.112;2023-03-25T05:18:39;99593.44;;;8.22;90.54
35224;BME280;21367;51.930;8.112;2023-03-25T05:23:43;99582.66;;;8.05;92.67
35224;BME280;21367;51.930;8.112;2023-03-25T05:28:50;99585.16;;;8.04;93.82
35224;BME280;21367;51.930;8.112;2023-03-25T05:33:57;99582.91;;;8.13;93.92
35224;BME280;21367;51.930;8.112;2023-03-25T05:39:01;99602.91;;;7.99;94.40
35224;BME280;21367;51.930;8.112;2023-03-25T05:44:09;99594.66;;;8.08;95.67
35224;BME280;21367;51.930;8.112;2023-03-25T05:49:14;99596.31;;;8.06;94.72
35224;BME280;21367;51.930;8.112;2023-03-25T05:54:18;99598.28;;;7.89;98.75
35224;BME280;21367;51.930;8.112;2023-03-25T05:59:27;99597.91;;;8.02;99.07
35224;BME280;21367;51.930;8.112;2023-03-25T06:04:31;99599.19;;;8.15;96.62
35224;BME280;21367;51.930;8.112;2023-03-25T06:09:39;99608.91;;;8.00;96.82
35224;BME280;21367;51.930;8.112;2023-03-25T06:14:48;99607.00;;;8.20;96.26
35224;BME280;21367;51.930;8.112;2023-03-25T06:19:53;99633.31;;;8.16;95.14
35224;BME280;21367;51.930;8.112;2023-03-25T06:24:57;99619.56;;;8.12;98.41
35224;BME280;21367;51.930;8.112;2023-03-25T06:30:05;99615.97;;;8.07;99.78
35224;BME280;21367;51.930;8.112;2023-03-25T06:35:11;99623.06;;;7.90;100.00
35224;BME280;21367;51.930;8.112;2023-03-25T06:40:19;99619.59;;;8.14;100.00
35224;BME280;21367;51.930;8.112;2023-03-25T06:45:27;99607.94;;;8.22;100.00
35224;BME280;21367;51.930;8.112;2023-03-25T06:50:51;99608.91;;;8.25;98.50
35224;BME280;21367;51.930;8.112;2023-03-25T06:55:55;99616.31;;;8.18;96.37
35224;BME280;21367;51.930;8.112;2023-03-25T07:01:02;99630.44;;;8.06;100.00
35224;BME280;21367;51.930;8.112;2023-03-25T07:06:07;99624.28;;;8.01;100.00
35224;BME280;21367;51.930;8.112;2023-03-25T07:11:16;99615.50;;;8.19;100.00
35224;BME280;21367;51.930;8.112;2023-03-25T07:16:25;99619.06;;;8.24;100.00
35224;BME280;21367;51.930;8.112;2023-03-25T07:21:29;99612.31;;;8.00;100.00
35224;BME280;21367;51.930;8.112;2023-03-25T07:26:32;99606.97;;;8.18;100.00
35224;BME280;21367;51.930;8.112;2023-03-25T07:31:39;99612.63;;;8.35;100.00
35224;BME280;21367;51.930;8.112;2023-03-25T07:36:43;99606.88;;;8.41;100.00
35224;BME280;21367;51.930;8.112;2023-03-25T07:41:46;99611.56;;;8.28;100.00
35224;BME280;21367;51.930;8.112;2023-03-25T07:47:19;99604.13;;;8.36;98.06
35224;BME280;21367;51.930;8.112;2023-03-25T07:52:22;99616.22;;;8.66;96.74
35224;BME280;21367;51.930;8.112;2023-03-25T07:57:26;99625.41;;;8.86;94.03
35224;BME280;21367;51.930;8.112;2023-03-25T08:02:32;99623.38;;;9.03;91.76
35224;BME280;21367;51.930;8.112;2023-03-25T08:07:35;99629.09;;;8.94;90.31
35224;BME280;21367;51.930;8.112;2023-03-25T08:12:39;99629.09;;;8.94;89.45
35224;BME280;21367;51.930;8.112;2023-03-25T08:17:46;99625.25;;;9.37;87.98
35224;BME280;21367;51.930;8.112;2023-03-25T08:22:50;99628.72;;;9.39;87.23
35224;BME280;21367;51.930;8.112;2023-03-25T08:27:54;99634.78;;;9.41;86.74
35224;BME280;21367;51.930;8.112;2023-03-25T08:33:00;99640.16;;;9.50;83.94
35224;BME280;21367;51.930;8.112;2023-03-25T08:38:04;99643.47;;;9.18;84.76
35224;BME280;21367;51.930;8.112;2023-03-25T08:43:09;99643.47;;;9.18;84.50
35224;BME280;21367;51.930;8.112;2023-03-25T08:48:15;99639.91;;;9.13;83.19
35224;BME280;21367;51.930;8.112;2023-03-25T08:53:19;99651.13;;;9.45;83.00
35224;BME280;21367;51.930;8.112;2023-03-25T08:58:24;99639.94;;;9.43;83.18
35224;BME280;21367;51.930;8.112;2023-03-25T09:03:31;99656.56;;;9.86;79.55
35224;BME280;21367;51.930;8.112;2023-03-25T09:08:37;99645.38;;;9.84;79.01
35224;BME280;21367;51.930;8.112;2023-03-25T09:13:40;99638.19;;;10.02;78.68
35224;BME280;21367;51.930;8.112;2023-03-25T09:18:47;99643.63;;;10.14;77.27
35224;BME280;21367;51.930;8.112;2023-03-25T09:23:50;99630.19;;;10.25;77.50
35224;BME280;21367;51.930;8.112;2023-03-25T09:28:54;99636.94;;;10.53;75.66
35224;BME280;21367;51.930;8.112;2023-03-25T09:34:00;99649.69;;;10.48;76.37
35224;BME280;21367;51.930;8.112;2023-03-25T09:39:04;99662.44;;;10.45;76.83
35224;BME280;21367;51.930;8.112;2023-03-25T09:44:14;99659.28;;;10.24;77.17
35224;BME280;21367;51.930;8.112;2023-03-25T09:49:25;99645.09;;;10.36;77.63
35224;BME280;21367;51.930;8.112;2023-03-25T09:54:35;99655.38;;;10.05;78.56
35224;BME280;21367;51.930;8.112;2023-03-25T09:59:43;99647.28;;;10.23;79.02
35224;BME280;21367;51.930;8.112;2023-03-25T10:05:12;99648.34;;;10.29;79.93
35224;BME280;21367;51.930;8.112;2023-03-25T10:10:24;99662.44;;;10.78;77.91
35224;BME280;21367;51.930;8.112;2023-03-25T10:15:35;99671.06;;;10.47;77.83
35224;BME280;21367;51.930;8.112;2023-03-25T10:20:49;99661.00;;;10.23;79.87
35224;BME280;21367;51.930;8.112;2023-03-25T10:25:57;99666.50;;;10.37;79.53
35224;BME280;21367;51.930;8.112;2023-03-25T10:31:04;99662.63;;;10.53;79.03
35224;BME280;21367;51.930;8.112;2023-03-25T10:36:16;99675.44;;;10.51;79.50
35224;BME280;21367;51.930;8.112;2023-03-25T10:41:25;99676.75;;;10.69;79.15
35224;BME280;21367;51.930;8.112;2023-03-25T10:46:33;99670.03;;;11.49;77.84
35224;BME280;21367;51.930;8.112;2023-03-25T10:51:46;99660.59;;;11.10;76.30
35224;BME280;21367;51.930;8.112;2023-03-25T10:56:55;99662.78;;;10.59;79.05
35224;BME280;21367;51.930;8.112;2023-03-25T11:02:07;99670.34;;;10.53;80.71
35224;BME280;21367;51.930;8.112;2023-03-25T11:07:19;99674.88;;;9.98;86.94
35224;BME280;21367;51.930;8.112;2023-03-25T11:12:23;99683.59;;;9.44;92.06
35224;BME280;21367;51.930;8.112;2023-03-25T11:17:27;99692.13;;;9.73;92.04
35224;BME280;21367;51.930;8.112;2023-03-25T11:22:36;99686.69;;;10.25;89.40
35224;BME280;21367;51.930;8.112;2023-03-25T11:27:44;99679.22;;;10.01;88.40
35224;BME280;21367;51.930;8.112;2023-03-25T11:32:57;99672.81;;;10.16;86.43
35224;BME280;21367;51.930;8.112;2023-03-25T11:38:13;99675.03;;;10.34;86.46
35224;BME280;21367;51.930;8.112;2023-03-25T11:43:19;99657.16;;;10.72;84.18
35224;BME280;21367;51.930;8.112;2023-03-25T11:48:29;99658.25;;;10.83;82.83
35224;BME280;21367;51.930;8.112;2023-03-25T11:53:36;99643.88;;;10.92;83.78
35224;BME280;21367;51.930;8.112;2023-03-25T11:58:40;99668.19;;;10.35;84.02
35224;BME280;21367;51.930;8.112;2023-03-25T12:03:44;99650.19;;;10.03;86.85
35224;BME280;21367;51.930;8.112;2023-03-25T12:08:52;99651.00;;;10.02;86.17
35224;BME280;21367;51.930;8.112;2023-03-25T12:14:17;99634.28;;;10.16;85.54
35224;BME280;21367;51.930;8.112;2023-03-25T12:19:27;99638.47;;;10.13;85.02
35224;BME280;21367;51.930;8.112;2023-03-25T12:24:55;99620.97;;;9.66;86.22
35224;BME280;21367;51.930;8.112;2023-03-25T12:30:11;99635.03;;;9.50;88.56
35224;BME280;21367;51.930;8.112;2023-03-25T12:35:28;99651.28;;;9.51;93.49
35224;BME280;21367;51.930;8.112;2023-03-25T12:40:47;99662.09;;;9.69;97.00
35224;BME280;21367;51.930;8.112;2023-03-25T12:46:01;99669.22;;;9.80;96.19
35224;BME280;21367;51.930;8.112;2023-03-25T12:51:16;99657.13;;;9.76;97.60
35224;BME280;21367;51.930;8.112;2023-03-25T12:56:39;99684.84;;;9.59;96.97
35224;BME280;21367;51.930;8.112;2023-03-25T13:01:52;99684.94;;;9.33;97.42
35224;BME280;21367;51.930;8.112;2023-03-25T13:07:02;99657.94;;;9.16;99.32
35224;BME280;21367;51.930;8.112;2023-03-25T13:12:13;99650.63;;;8.99;100.00
35224;BME280;21367;51.930;8.112;2023-03-25T13:17:25;99636.31;;;9.08;96.76
35224;BME280;21367;51.930;8.112;2023-03-25T13:22:33;99631.16;;;9.35;96.01
35224;BME280;21367;51.930;8.112;2023-03-25T13:27:41;99626.09;;;10.63;89.18
35224;BME280;21367;51.930;8.112;2023-03-25T13:32:48;99628.97;;;11.95;83.08
35224;BME280;21367;51.930;8.112;2023-03-25T13:37:57;99617.09;;;11.20;82.09
35224;BME280;21367;51.930;8.112;2023-03-25T13:43:12;99613.47;;;11.51;82.58
35224;BME280;21367;51.930;8.112;2023-03-25T13:48:21;99614.94;;;10.62;84.37
35224;BME280;21367;51.930;8.112;2023-03-25T13:53:33;99626.06;;;10.28;88.31
35224;BME280;21367;51.930;8.112;2023-03-25T13:58:52;99626.72;;;9.89;91.14
35224;BME280;21367;51.930;8.112;2023-03-25T14:04:22;99647.50;;;10.30;92.09
35224;BME280;21367;51.930;8.112;2023-03-25T14:10:01;99647.66;;;10.35;92.97
35224;BME280;21367;51.930;8.112;2023-03-25T14:15:18;99658.56;;;10.28;92.51
35224;BME280;21367;51.930;8.112;2023-03-25T14:20:27;99640.22;;;10.14;96.13
35224;BME280;21367;51.930;8.112;2023-03-25T14:25:36;99670.81;;;9.76;99.16
35224;BME280;21367;51.930;8.112;2023-03-25T14:30:43;99639.13;;;9.74;100.00
35224;BME280;21367;51.930;8.112;2023-03-25T14:35:48;99640.53;;;9.63;100.00
35224;BME280;21367;51.930;8.112;2023-03-25T14:40:53;99646.44;;;9.90;100.00
35224;BME280;21367;51.930;8.112;2023-03-25T14:46:13;99653.69;;;9.16;100.00
35224;BME280;21367;51.930;8.112;2023-03-25T14:51:44;99661.69;;;9.56;100.00
35224;BME280;21367;51.930;8.112;2023-03-25T14:56:53;99669.16;;;10.08;100.00
35224;BME280;21367;51.930;8.112;2023-03-25T15:02:10;99653.66;;;10.35;100.00
35224;BME280;21367;51.930;8.112;2023-03-25T15:07:17;99647.28;;;10.54;95.41
35224;BME280;21367;51.930;8.112;2023-03-25T15:12:40;99637.56;;;10.11;96.44
35224;BME280;21367;51.930;8.112;2023-03-25T15:56:01;99658.63;;;9.99;86.98
35224;BME280;21367;51.930;8.112;2023-03-25T16:01:23;99657.97;;;9.46;91.03
35224;BME280;21367;51.930;8.112;2023-03-25T16:06:41;99643.44;;;9.75;89.73
35224;BME280;21367;51.930;8.112;2023-03-25T16:11:57;99644.34;;;9.77;89.99
35224;BME280;21367;51.930;8.112;2023-03-25T16:17:05;99655.16;;;9.65;91.87
35224;BME280;21367;51.930;8.112;2023-03-25T16:22:15;99638.25;;;9.73;92.28
35224;BME280;21367;51.930;8.112;2023-03-25T16:27:25;99635.94;;;9.53;93.16
35224;BME280;21367;51.930;8.112;2023-03-25T16:38:22;99732.31;;;9.44;100.00
35224;BME280;21367;51.930;8.112;2023-03-25T16:43:38;99694.97;;;8.71;98.95
35224;BME280;21367;51.930;8.112;2023-03-25T16:48:48;99688.56;;;8.84;98.65
35224;BME280;21367;51.930;8.112;2023-03-25T16:53:58;99674.06;;;8.59;98.84
35224;BME280;21367;51.930;8.112;2023-03-25T16:59:24;99687.50;;;8.77;97.46
35224;BME280;21367;51.930;8.112;2023-03-25T17:04:36;99684.75;;;8.73;100.00
35224;BME280;21367;51.930;8.112;2023-03-25T17:09:41;99689.13;;;8.75;100.00
35224;BME280;21367;51.930;8.112;2023-03-25T17:14:48;99716.88;;;8.89;100.00
35224;BME280;21367;51.930;8.112;2023-03-25T17:19:53;99706.50;;;8.84;100.00
35224;BME280;21367;51.930;8.112;2023-03-25T17:25:12;99718.66;;;8.91;99.14
35224;BME280;21367;51.930;8.112;2023-03-25T17:30:32;99784.06;;;8.80;100.00
35224;BME280;21367;51.930;8.112;2023-03-25T17:35:42;99810.81;;;8.88;100.00
35224;BME280;21367;51.930;8.112;2023-03-25T17:40:56;99790.13;;;8.58;100.00
35224;BME280;21367;51.930;8.112;2023-03-25T17:46:04;99793.16;;;8.46;100.00
35224;BME280;21367;51.930;8.112;2023-03-25T17:51:10;99798.09;;;8.19;100.00
35224;BME280;21367;51.930;8.112;2023-03-25T17:56:17;99807.06;;;8.30;100.00
35224;BME280;21367;51.930;8.112;2023-03-25T18:01:27;99812.84;;;8.02;100.00
35224;BME280;21367;51.930;8.112;2023-03-25T18:06:33;99835.56;;;7.95;100.00
35224;BME280;21367;51.930;8.112;2023-03-25T18:11:37;99831.81;;;7.64;100.00
35224;BME280;21367;51.930;8.112;2023-03-25T18:16:43;99830.56;;;7.75;100.00
35224;BME280;21367;51.930;8.112;2023-03-25T18:21:47;99826.81;;;7.67;100.00
35224;BME280;21367;51.930;8.112;2023-03-25T18:26:51;99831.88;;;7.65;100.00
35224;BME280;21367;51.930;8.112;2023-03-25T18:31:58;99835.53;;;7.72;100.00
35224;BME280;21367;51.930;8.112;2023-03-25T18:37:02;99832.16;;;7.73;100.00
35224;BME280;21367;51.930;8.112;2023-03-25T18:42:07;99844.44;;;7.82;100.00
35224;BME280;21367;51.930;8.112;2023-03-25T18:47:13;99821.53;;;7.62;100.00
35224;BME280;21367;51.930;8.112;2023-03-25T18:52:18;99841.91;;;7.61;100.00
35224;BME280;21367;51.930;8.112;2023-03-25T18:57:22;99855.50;;;7.60;100.00
35224;BME280;21367;51.930;8.112;2023-03-25T19:02:28;99850.06;;;7.73;100.00
35224;BME280;21367;51.930;8.112;2023-03-25T19:07:33;99863.75;;;7.32;100.00
35224;BME280;21367;51.930;8.112;2023-03-25T19:12:36;99871.78;;;7.41;100.00
35224;BME280;21367;51.930;8.112;2023-03-25T19:17:43;99873.88;;;7.09;100.00
35224;BME280;21367;51.930;8.112;2023-03-25T19:22:47;99871.97;;;7.25;100.00
35224;BME280;21367;51.930;8.112;2023-03-25T19:27:51;99886.94;;;6.96;100.00
35224;BME280;21367;51.930;8.112;2023-03-25T19:32:58;99890.00;;;7.49;100.00
35224;BME280;21367;51.930;8.112;2023-03-25T19:38:01;99882.63;;;7.35;100.00
35224;BME280;21367;51.930;8.112;2023-03-25T19:43:05;99886.22;;;7.19;100.00
35224;BME280;21367;51.930;8.112;2023-03-25T19:48:13;99877.28;;;7.50;100.00
35224;BME280;21367;51.930;8.112;2023-03-25T19:53:16;99876.94;;;7.42;100.00
35224;BME280;21367;51.930;8.112;2023-03-25T19:58:20;99891.72;;;7.71;100.00
35224;BME280;21367;51.930;8.112;2023-03-25T20:30:55;99883.06;;;7.25;100.00
35224;BME280;21367;51.930;8.112;2023-03-25T20:36:21;99886.44;;;7.05;100.00
35224;BME280;21367;51.930;8.112;2023-03-25T20:41:37;99893.31;;;7.06;100.00
35224;BME280;21367;51.930;8.112;2023-03-25T20:46:54;99884.53;;;7.20;100.00
35224;BME280;21367;51.930;8.112;2023-03-25T20:52:28;99889.69;;;7.01;100.00
35224;BME280;21367;51.930;8.112;2023-03-25T20:58:01;99893.41;;;6.88;100.00
35224;BME280;21367;51.930;8.112;2023-03-25T21:03:15;99896.78;;;7.08;100.00
35224;BME280;21367;51.930;8.112;2023-03-25T21:08:25;99897.94;;;7.14;100.00
35224;BME280;21367;51.930;8.112;2023-03-25T21:13:47;99901.59;;;6.81;100.00
35224;BME280;21367;51.930;8.112;2023-03-25T21:19:10;99906.69;;;7.19;100.00
35224;BME280;21367;51.930;8.112;2023-03-25T21:24:17;99916.59;;;7.12;100.00
35224;BME280;21367;51.930;8.112;2023-03-25T21:29:39;99921.53;;;7.28;100.00
35224;BME280;21367;51.930;8.112;2023-03-25T21:34:46;99932.75;;;7.32;100.00
35224;BME280;21367;51.930;8.112;2023-03-25T21:40:02;99925.81;;;7.29;100.00
35224;BME280;21367;51.930;8.112;2023-03-25T21:45:31;99926.28;;;7.61;100.00
35224;BME280;21367;51.930;8.112;2023-03-25T21:50:55;99937.34;;;7.19;100.00
35224;BME280;21367;51.930;8.112;2023-03-25T21:56:10;99945.63;;;7.33;100.00
35224;BME280;21367;51.930;8.112;2023-03-25T22:01:32;99944.97;;;7.58;100.00
35224;BME280;21367;51.930;8.112;2023-03-25T22:06:51;99955.28;;;7.61;100.00
35224;BME280;21367;51.930;8.112;2023-03-25T22:12:55;99955.75;;;7.72;100.00
35224;BME280;21367;51.930;8.112;2023-03-25T22:18:09;99949.94;;;7.76;100.00
35224;BME280;21367;51.930;8.112;2023-03-25T22:23:45;99949.34;;;7.41;100.00
35224;BME280;21367;51.930;8.112;2023-03-25T22:29:01;99952.13;;;7.67;100.00
35224;BME280;21367;51.930;8.112;2023-03-25T22:34:13;99961.47;;;7.67;100.00
35224;BME280;21367;51.930;8.112;2023-03-25T22:39:26;99973.94;;;7.80;100.00
35224;BME280;21367;51.930;8.112;2023-03-25T22:44:49;99981.13;;;7.88;100.00
35224;BME280;21367;51.930;8.112;2023-03-25T22:50:01;99984.69;;;7.92;100.00
35224;BME280;21367;51.930;8.112;2023-03-25T22:55:14;99985.16;;;8.03;100.00
35224;BME280;21367;51.930;8.112;2023-03-25T23:00:24;99978.94;;;7.98;100.00
35224;BME280;21367;51.930;8.112;2023-03-25T23:05:37;99996.16;;;8.02;100.00
35224;BME280;21367;51.930;8.112;2023-03-25T23:10:53;99991.63;;;8.16;100.00
35224;BME280;21367;51.930;8.112;2023-03-25T23:28:06;100008.84;;;7.99;100.00
35224;BME280;21367;51.930;8.112;2023-03-25T23:33:10;100008.91;;;8.00;100.00
35224;BME280;21367;51.930;8.112;2023-03-25T23:38:13;100007.59;;;8.10;100.00
35224;BME280;21367;51.930;8.112;2023-03-25T23:43:20;100009.75;;;7.99;100.00
35224;BME280;21367;51.930;8.112;2023-03-25T23:48:24;100016.09;;;7.88;100.00
35224;BME280;21367;51.930;8.112;2023-03-25T23:53:28;100014.84;;;8.20;100.00
35224;BME280;21367;51.930;8.112;2023-03-25T23:58:35;100016.22;;;8.12;100.00
